createdAt,value
2023-03-11T00:02:19.495Z,43.64
2023-03-11T00:04:46.155Z,43.57
2023-03-11T00:07:12.843Z,43.14
2023-03-11T00:09:39.644Z,42.98
2023-03-11T00:12:06.788Z,43.72
2023-03-11T00:14:34.054Z,43.61
2023-03-11T00:17:01.078Z,43.54
2023-03-11T00:19:28.349Z,43.18
2023-03-11T00:21:58.262Z,43.57
2023-03-11T00:24:25.520Z,43.28
2023-03-11T00:26:52.496Z,43.29
2023-03-11T00:29:19.392Z,43.38
2023-03-11T00:31:46.359Z,43.04
2023-03-11T00:34:13.257Z,43.59
2023-03-11T00:36:40.044Z,42.77
2023-03-11T00:39:07.689Z,43.39
2023-03-11T00:41:35.260Z,43.05
2023-03-11T00:44:02.198Z,43.65
2023-03-11T00:46:31.356Z,43.07
2023-03-11T00:48:58.280Z,42.82
2023-03-11T00:51:25.022Z,43.29
2023-03-11T00:53:51.964Z,43.22
2023-03-11T00:56:18.659Z,43.02
2023-03-11T00:58:46.176Z,43.50
2023-03-11T01:01:16.878Z,42.80
2023-03-11T01:03:44.355Z,43.47
2023-03-11T01:06:11.490Z,43.18
2023-03-11T01:08:38.612Z,43.23
2023-03-11T01:11:07.310Z,43.41
2023-03-11T01:13:34.704Z,43.24
2023-03-11T01:16:01.953Z,43.20
2023-03-11T01:18:29.372Z,43.31
2023-03-11T01:20:56.373Z,42.92
2023-03-11T01:23:23.406Z,42.88
2023-03-11T01:25:50.230Z,43.29
2023-03-11T01:28:17.170Z,43.59
2023-03-11T01:30:44.279Z,43.71
2023-03-11T01:33:17.200Z,43.20
2023-03-11T01:35:44.771Z,42.82
2023-03-11T01:38:12.750Z,43.29
2023-03-11T01:40:46.046Z,42.84
2023-03-11T01:43:37.438Z,42.79
2023-03-11T01:46:10.429Z,43.42
2023-03-11T01:48:38.926Z,43.15
2023-03-11T01:51:07.403Z,43.42
2023-03-11T01:53:34.941Z,43.46
2023-03-11T01:56:04.934Z,43.42
2023-03-11T01:58:36.128Z,43.06
2023-03-11T02:01:04.081Z,42.90
2023-03-11T02:03:33.374Z,43.45
2023-03-11T02:06:02.975Z,43.12
2023-03-11T02:08:30.358Z,43.27
2023-03-11T02:10:57.511Z,42.85
2023-03-11T02:13:24.439Z,43.57
2023-03-11T02:15:52.022Z,43.64
2023-03-11T02:18:20.529Z,43.54
2023-03-11T02:21:14.564Z,43.39
2023-03-11T02:23:52.439Z,43.08
2023-03-11T02:26:37.699Z,42.78
2023-03-11T02:29:06.728Z,43.62
2023-03-11T02:31:35.664Z,42.85
2023-03-11T02:34:03.794Z,42.87
2023-03-11T02:36:41.706Z,42.67
2023-03-11T02:39:09.691Z,43.09
2023-03-11T02:41:40.438Z,43.56
2023-03-11T02:44:10.764Z,43.26
2023-03-11T02:46:40.481Z,43.30
2023-03-11T02:49:07.697Z,43.63
2023-03-11T02:51:34.586Z,43.25
2023-03-11T02:54:05.010Z,42.87
2023-03-11T02:56:31.896Z,43.00
2023-03-11T02:58:58.670Z,43.05
2023-03-11T03:01:25.284Z,43.06
2023-03-11T03:03:52.036Z,42.41
2023-03-11T03:06:19.112Z,43.23
2023-03-11T03:08:45.923Z,43.00
2023-03-11T03:11:12.805Z,43.04
2023-03-11T03:13:39.616Z,42.91
2023-03-11T03:16:09.612Z,42.70
2023-03-11T03:18:37.816Z,43.11
2023-03-11T03:21:05.663Z,43.08
2023-03-11T03:23:37.857Z,42.85
2023-03-11T03:26:06.344Z,43.08
2023-03-11T03:28:33.673Z,42.60
2023-03-11T03:31:09.117Z,42.68
2023-03-11T03:33:39.123Z,42.53
2023-03-11T03:36:08.174Z,42.84
2023-03-11T03:38:35.024Z,42.38
2023-03-11T03:41:01.976Z,42.56
2023-03-11T03:43:29.055Z,42.86
2023-03-11T03:46:01.055Z,42.77
2023-03-11T03:48:28.729Z,43.22
2023-03-11T03:50:55.529Z,42.80
2023-03-11T03:53:22.640Z,42.54
2023-03-11T03:55:50.955Z,42.82
2023-03-11T03:58:17.974Z,42.72
2023-03-11T04:00:44.751Z,42.77
2023-03-11T04:03:11.726Z,43.18
2023-03-11T04:05:38.575Z,42.56
2023-03-11T04:08:05.392Z,43.20
2023-03-11T04:10:32.148Z,42.95
2023-03-11T04:12:58.968Z,42.74
2023-03-11T04:15:26.242Z,43.13
2023-03-11T04:17:53.235Z,42.62
2023-03-11T04:20:20.234Z,42.86
2023-03-11T04:22:47.023Z,42.42
2023-03-11T04:25:13.813Z,43.03
2023-03-11T04:27:43.774Z,42.39
2023-03-11T04:30:11.395Z,43.09
2023-03-11T04:32:38.663Z,42.65
2023-03-11T04:35:06.376Z,43.16
2023-03-11T04:37:34.178Z,42.64
2023-03-11T04:40:01.071Z,42.92
2023-03-11T04:42:28.518Z,42.58
2023-03-11T04:44:55.717Z,42.46
2023-03-11T04:47:22.621Z,42.90
2023-03-11T04:49:49.378Z,43.13
2023-03-11T04:52:16.140Z,42.75
2023-03-11T04:54:43.085Z,42.68
2023-03-11T04:57:09.915Z,43.13
2023-03-11T04:59:36.872Z,42.50
2023-03-11T05:02:03.767Z,42.62
2023-03-11T05:04:30.901Z,42.65
2023-03-11T05:06:57.996Z,43.00
2023-03-11T05:09:24.963Z,42.48
2023-03-11T05:11:51.775Z,42.69
2023-03-11T05:14:18.603Z,42.48
2023-03-11T05:16:45.489Z,43.10
2023-03-11T05:19:31.253Z,42.59
2023-03-11T05:21:59.342Z,42.51
2023-03-11T05:24:26.497Z,43.00
2023-03-11T05:26:53.315Z,42.96
2023-03-11T05:29:24.592Z,42.71
2023-03-11T05:31:51.738Z,42.31
2023-03-11T05:34:18.665Z,42.29
2023-03-11T05:36:45.603Z,42.36
2023-03-11T05:39:13.067Z,42.99
2023-03-11T05:41:41.129Z,42.90
2023-03-11T05:44:07.983Z,42.91
2023-03-11T05:46:37.716Z,42.56
2023-03-11T05:49:04.697Z,42.79
2023-03-11T05:51:31.772Z,42.29
2023-03-11T05:53:58.938Z,42.35
2023-03-11T05:56:25.687Z,42.83
2023-03-11T05:58:52.371Z,42.64
2023-03-11T06:01:20.821Z,42.50
2023-03-11T06:03:47.572Z,42.32
2023-03-11T06:06:14.868Z,42.61
2023-03-11T06:08:46.180Z,42.19
2023-03-11T06:11:13.259Z,42.22
2023-03-11T06:13:40.352Z,42.43
2023-03-11T06:16:07.921Z,42.04
2023-03-11T06:18:35.192Z,42.19
2023-03-11T06:21:03.201Z,42.53
2023-03-11T06:23:30.263Z,42.63
2023-03-11T06:25:58.085Z,42.13
2023-03-11T06:28:25.146Z,42.26
2023-03-11T06:30:52.094Z,41.93
2023-03-11T06:33:18.876Z,41.80
2023-03-11T06:35:45.766Z,42.21
2023-03-11T06:38:12.490Z,41.80
2023-03-11T06:40:39.254Z,42.04
2023-03-11T06:43:05.903Z,41.94
2023-03-11T06:45:32.614Z,41.79
2023-03-11T06:47:59.338Z,41.91
2023-03-11T06:50:27.051Z,42.16
2023-03-11T06:52:54.241Z,42.33
2023-03-11T06:55:21.426Z,41.65
2023-03-11T06:57:48.179Z,41.75
2023-03-11T07:00:15.704Z,41.84
2023-03-11T07:02:42.589Z,42.00
2023-03-11T07:05:09.900Z,42.01
2023-03-11T07:07:36.638Z,41.63
2023-03-11T07:10:04.236Z,42.23
2023-03-11T07:12:30.931Z,41.91
2023-03-11T07:14:58.914Z,42.04
2023-03-11T07:17:26.887Z,42.16
2023-03-11T07:19:54.352Z,42.26
2023-03-11T07:22:21.192Z,42.00
2023-03-11T07:24:51.120Z,42.04
2023-03-11T07:27:17.996Z,42.13
2023-03-11T07:29:45.103Z,42.12
2023-03-11T07:32:11.923Z,42.02
2023-03-11T07:34:38.733Z,41.41
2023-03-11T07:37:05.594Z,42.06
2023-03-11T07:39:32.677Z,41.88
2023-03-11T07:41:59.416Z,41.29
2023-03-11T07:44:26.220Z,42.15
2023-03-11T07:46:52.954Z,41.67
2023-03-11T07:49:20.047Z,41.93
2023-03-11T07:51:46.931Z,41.85
2023-03-11T07:54:13.644Z,41.32
2023-03-11T07:56:40.678Z,41.93
2023-03-11T07:59:07.480Z,41.41
2023-03-11T08:01:40.933Z,41.32
2023-03-11T08:04:14.298Z,41.81
2023-03-11T08:06:43.906Z,41.19
2023-03-11T08:09:11.056Z,41.60
2023-03-11T08:11:38.630Z,41.15
2023-03-11T08:14:06.260Z,41.34
2023-03-11T08:16:33.756Z,41.31
2023-03-11T08:19:00.779Z,41.32
2023-03-11T08:21:32.572Z,41.54
2023-03-11T08:24:02.002Z,40.97
2023-03-11T08:26:31.100Z,41.59
2023-03-11T08:28:59.434Z,41.53
2023-03-11T08:31:29.723Z,41.58
2023-03-11T08:34:02.899Z,41.11
2023-03-11T08:36:30.593Z,41.67
2023-03-11T08:38:58.126Z,41.33
2023-03-11T08:41:25.400Z,41.40
2023-03-11T08:43:52.651Z,41.49
2023-03-11T08:46:22.412Z,41.45
2023-03-11T08:48:49.349Z,41.44
2023-03-11T08:51:16.685Z,41.59
2023-03-11T08:53:43.697Z,40.88
2023-03-11T08:56:10.705Z,41.45
2023-03-11T08:58:37.739Z,41.71
2023-03-11T09:01:06.649Z,41.58
2023-03-11T09:03:35.674Z,41.56
2023-03-11T09:06:06.180Z,41.10
2023-03-11T09:09:02.311Z,41.36
2023-03-11T09:11:49.073Z,40.87
2023-03-11T09:14:15.944Z,40.64
2023-03-11T09:16:42.831Z,41.05
2023-03-11T09:19:09.794Z,40.84
2023-03-11T09:21:37.540Z,40.64
2023-03-11T09:24:06.004Z,40.42
2023-03-11T09:26:32.762Z,40.30
2023-03-11T09:28:59.505Z,40.67
2023-03-11T09:31:26.439Z,40.55
2023-03-11T09:33:53.306Z,40.73
2023-03-11T09:36:21.565Z,41.20
2023-03-11T09:38:49.198Z,40.31
2023-03-11T09:41:18.673Z,40.90
2023-03-11T09:44:07.535Z,41.20
2023-03-11T09:46:53.320Z,40.55
2023-03-11T09:49:33.477Z,40.72
2023-03-11T09:52:09.135Z,40.68
2023-03-11T09:54:42.853Z,40.68
2023-03-11T09:57:15.838Z,41.11
2023-03-11T09:59:43.935Z,41.37
2023-03-11T10:02:17.640Z,40.77
2023-03-11T10:04:56.507Z,40.67
2023-03-11T10:07:33.457Z,41.22
2023-03-11T10:10:00.439Z,40.84
2023-03-11T10:12:46.124Z,40.51
2023-03-11T10:15:39.723Z,40.79
2023-03-11T10:18:30.715Z,40.80
2023-03-11T10:21:18.446Z,41.04
2023-03-11T10:24:15.686Z,40.45
2023-03-11T10:26:46.999Z,41.10
2023-03-11T10:29:13.715Z,40.79
2023-03-11T10:31:58.058Z,40.92
2023-03-11T10:34:34.458Z,41.01
2023-03-11T10:37:13.768Z,41.05
2023-03-11T10:39:41.066Z,40.91
2023-03-11T10:42:15.418Z,41.21
2023-03-11T10:44:43.412Z,41.03
2023-03-11T10:47:19.784Z,41.16
2023-03-11T10:49:47.097Z,40.96
2023-03-11T10:52:14.167Z,40.81
2023-03-11T10:54:48.076Z,40.42
2023-03-11T10:57:34.718Z,40.75
2023-03-11T11:00:12.263Z,40.95
2023-03-11T11:02:49.588Z,40.41
2023-03-11T11:05:28.938Z,40.45
2023-03-11T11:08:16.206Z,40.80
2023-03-11T11:10:57.698Z,40.36
2023-03-11T11:13:27.049Z,40.29
2023-03-11T11:16:01.230Z,40.91
2023-03-11T11:18:29.762Z,40.55
2023-03-11T11:21:03.584Z,40.80
2023-03-11T11:23:50.008Z,40.86
2023-03-11T11:26:23.594Z,40.32
2023-03-11T11:29:12.636Z,40.99
2023-03-11T11:31:42.173Z,40.64
2023-03-11T11:34:33.029Z,40.99
2023-03-11T11:37:04.408Z,40.90
2023-03-11T11:39:39.824Z,40.87
2023-03-11T11:42:09.871Z,40.33
2023-03-11T11:44:36.668Z,39.92
2023-03-11T11:47:36.881Z,40.31
2023-03-11T11:50:07.330Z,40.40
2023-03-11T11:52:45.185Z,39.99
2023-03-11T11:55:26.007Z,40.48
2023-03-11T11:57:53.130Z,39.92
2023-03-11T12:00:21.735Z,39.86
2023-03-11T12:02:57.209Z,40.54
2023-03-11T12:05:29.946Z,40.42
2023-03-11T12:08:19.587Z,40.18
2023-03-11T12:10:57.499Z,40.61
2023-03-11T12:13:40.961Z,40.01
2023-03-11T12:16:22.662Z,40.43
2023-03-11T12:19:02.628Z,40.15
2023-03-11T12:21:32.123Z,40.03
2023-03-11T12:24:25.281Z,39.89
2023-03-11T12:26:54.533Z,40.47
2023-03-11T12:29:34.494Z,40.01
2023-03-11T12:32:03.054Z,40.13
2023-03-11T12:34:34.576Z,40.18
2023-03-11T12:37:05.371Z,39.83
2023-03-11T12:39:34.569Z,39.75
2023-03-11T12:42:21.875Z,40.26
2023-03-11T12:44:51.347Z,39.67
2023-03-11T12:47:19.809Z,39.78
2023-03-11T12:49:55.653Z,39.48
2023-03-11T12:52:28.095Z,39.27
2023-03-11T12:55:01.386Z,39.93
2023-03-11T12:57:34.310Z,39.09
2023-03-11T13:00:24.539Z,39.97
2023-03-11T13:03:15.877Z,39.53
2023-03-11T13:06:21.308Z,39.87
2023-03-11T13:08:55.023Z,40.40
2023-03-11T13:11:33.711Z,40.29
2023-03-11T13:14:29.874Z,40.43
2023-03-11T13:17:19.515Z,39.91
2023-03-11T13:19:49.419Z,39.89
2023-03-11T13:22:43.796Z,40.75
2023-03-11T13:25:29.562Z,40.48
2023-03-11T13:28:20.302Z,40.35
2023-03-11T13:31:08.228Z,40.54
2023-03-11T13:33:46.487Z,40.66
2023-03-11T13:36:15.909Z,40.59
2023-03-11T13:39:08.772Z,40.70
2023-03-11T13:41:37.363Z,40.15
2023-03-11T13:44:26.344Z,39.83
2023-03-11T13:46:58.624Z,40.55
2023-03-11T13:49:35.428Z,39.96
2023-03-11T13:52:03.721Z,40.27
2023-03-11T13:54:46.690Z,40.37
2023-03-11T13:57:35.105Z,40.23
2023-03-11T14:00:17.905Z,40.32
2023-03-11T14:02:51.787Z,40.39
2023-03-11T14:05:24.601Z,40.07
2023-03-11T14:07:51.853Z,40.65
2023-03-11T14:10:29.530Z,40.60
2023-03-11T14:13:19.654Z,40.19
2023-03-11T14:15:53.029Z,40.53
2023-03-11T14:18:26.182Z,40.63
2023-03-11T14:20:52.920Z,40.56
2023-03-11T14:23:20.695Z,40.66
2023-03-11T14:25:47.494Z,40.18
2023-03-11T14:28:20.462Z,40.36
2023-03-11T14:31:01.352Z,40.67
2023-03-11T14:33:28.365Z,40.68
2023-03-11T14:35:59.970Z,40.68
2023-03-11T14:38:30.443Z,40.34
2023-03-11T14:41:03.028Z,40.10
2023-03-11T14:43:34.640Z,40.28
2023-03-11T14:46:03.295Z,40.33
2023-03-11T14:48:36.811Z,40.51
2023-03-11T14:51:07.899Z,40.26
2023-03-11T14:53:34.567Z,40.61
2023-03-11T14:56:09.330Z,40.43
2023-03-11T14:58:42.975Z,40.69
2023-03-11T15:01:12.402Z,40.03
2023-03-11T15:03:49.572Z,39.79
2023-03-11T15:06:22.255Z,39.51
2023-03-11T15:08:52.900Z,39.44
2023-03-11T15:11:24.603Z,39.54
2023-03-11T15:13:53.147Z,40.20
2023-03-11T15:16:34.504Z,39.82
2023-03-11T15:19:21.314Z,40.04
2023-03-11T15:21:50.426Z,40.30
2023-03-11T15:24:23.873Z,40.18
2023-03-11T15:27:02.202Z,40.30
2023-03-11T15:29:30.977Z,39.85
2023-03-11T15:31:58.994Z,40.21
2023-03-11T15:34:33.813Z,40.19
2023-03-11T15:37:04.247Z,40.56
2023-03-11T15:39:30.909Z,40.35
2023-03-11T15:42:06.764Z,40.40
2023-03-11T15:44:37.011Z,40.39
2023-03-11T15:47:04.520Z,40.11
2023-03-11T15:49:31.356Z,39.94
2023-03-11T15:52:02.262Z,39.94
2023-03-11T15:54:29.392Z,40.08
2023-03-11T15:57:03.868Z,39.78
2023-03-11T15:59:30.914Z,40.28
2023-03-11T16:01:59.731Z,40.47
2023-03-11T16:04:27.535Z,40.30
2023-03-11T16:07:06.900Z,40.18
2023-03-11T16:09:34.880Z,40.02
2023-03-11T16:12:02.359Z,39.89
2023-03-11T16:14:29.026Z,40.47
2023-03-11T16:16:55.734Z,39.83
2023-03-11T16:19:22.365Z,40.05
2023-03-11T16:21:50.639Z,40.61
2023-03-11T16:24:24.122Z,40.22
2023-03-11T16:26:52.833Z,40.02
2023-03-11T16:29:24.044Z,40.03
2023-03-11T16:31:50.894Z,40.46
2023-03-11T16:34:17.624Z,40.26
2023-03-11T16:36:44.474Z,40.51
2023-03-11T16:39:11.234Z,40.16
2023-03-11T16:41:43.033Z,40.24
2023-03-11T16:44:10.191Z,40.15
2023-03-11T16:46:37.140Z,40.33
2023-03-11T16:49:04.230Z,40.33
2023-03-11T16:51:31.484Z,40.24
2023-03-11T16:53:58.362Z,40.48
2023-03-11T16:56:25.256Z,40.41
2023-03-11T16:58:52.119Z,40.66
2023-03-11T17:01:19.442Z,40.63
2023-03-11T17:03:49.649Z,40.61
2023-03-11T17:06:17.537Z,40.61
2023-03-11T17:08:49.164Z,40.47
2023-03-11T17:11:22.135Z,40.75
2023-03-11T17:13:50.575Z,40.62
2023-03-11T17:16:17.566Z,40.37
2023-03-11T17:18:44.711Z,41.01
2023-03-11T17:21:16.277Z,41.11
2023-03-11T17:23:45.472Z,40.82
2023-03-11T17:26:16.396Z,40.29
2023-03-11T17:28:43.839Z,40.54
2023-03-11T17:31:15.223Z,40.78
2023-03-11T17:33:43.219Z,41.00
2023-03-11T17:36:14.857Z,40.50
2023-03-11T17:38:43.177Z,41.15
2023-03-11T17:41:12.996Z,40.57
2023-03-11T17:43:40.970Z,40.92
2023-03-11T17:46:16.573Z,41.00
2023-03-11T17:48:45.628Z,41.46
2023-03-11T17:51:16.041Z,41.43
2023-03-11T17:53:48.039Z,40.41
2023-03-11T17:56:21.987Z,40.41
2023-03-11T17:58:50.513Z,40.96
2023-03-11T18:01:25.856Z,40.43
2023-03-11T18:03:53.749Z,40.73
2023-03-11T18:06:24.842Z,40.84
2023-03-11T18:08:52.825Z,40.91
2023-03-11T18:11:29.595Z,40.74
2023-03-11T18:13:57.325Z,40.54
2023-03-11T18:16:28.804Z,40.36
2023-03-11T18:18:59.549Z,40.65
2023-03-11T18:21:30.210Z,40.25
2023-03-11T18:24:00.086Z,41.01
2023-03-11T18:26:29.643Z,40.95
2023-03-11T18:29:01.372Z,40.61
2023-03-11T18:31:30.506Z,40.69
2023-03-11T18:34:00.746Z,40.71
2023-03-11T18:36:33.868Z,40.35
2023-03-11T18:39:02.036Z,40.27
2023-03-11T18:41:32.577Z,40.59
2023-03-11T18:44:00.553Z,40.20
2023-03-11T18:46:31.913Z,40.75
2023-03-11T18:49:01.089Z,40.53
2023-03-11T18:51:33.295Z,40.37
2023-03-11T18:54:01.037Z,40.33
2023-03-11T18:56:31.263Z,40.41
2023-03-11T18:59:05.027Z,40.83
2023-03-11T19:01:33.267Z,40.90
2023-03-11T19:04:07.449Z,40.67
2023-03-11T19:06:34.596Z,40.28
2023-03-11T19:09:06.937Z,40.67
2023-03-11T19:11:34.205Z,40.46
2023-03-11T19:14:01.389Z,40.68
2023-03-11T19:16:28.748Z,40.40
2023-03-11T19:18:56.254Z,40.61
2023-03-11T19:21:23.967Z,40.07
2023-03-11T19:23:53.021Z,40.50
2023-03-11T19:26:25.738Z,40.98
2023-03-11T19:28:58.318Z,40.33
2023-03-11T19:31:25.361Z,40.55
2023-03-11T19:33:52.608Z,40.50
2023-03-11T19:36:20.068Z,41.11
2023-03-11T19:38:48.043Z,40.25
2023-03-11T19:41:20.323Z,40.83
2023-03-11T19:43:48.321Z,40.91
2023-03-11T19:46:19.561Z,40.72
2023-03-11T19:48:47.065Z,40.50
2023-03-11T19:51:14.358Z,40.95
2023-03-11T19:53:42.114Z,40.70
2023-03-11T19:56:10.419Z,40.22
2023-03-11T19:58:37.866Z,40.37
2023-03-11T20:01:05.426Z,40.70
2023-03-11T20:03:32.452Z,40.68
2023-03-11T20:06:05.899Z,40.81
2023-03-11T20:08:37.624Z,40.14
2023-03-11T20:11:06.278Z,40.99
2023-03-11T20:13:35.401Z,40.56
2023-03-11T20:16:07.914Z,40.61
2023-03-11T20:18:35.308Z,40.53
2023-03-11T20:21:07.903Z,40.70
2023-03-11T20:23:35.214Z,40.64
2023-03-11T20:26:08.142Z,40.98
2023-03-11T20:28:35.182Z,40.40
2023-03-11T20:31:18.288Z,40.33
2023-03-11T20:33:46.329Z,40.65
2023-03-11T20:36:16.959Z,40.73
2023-03-11T20:38:44.176Z,41.09
2023-03-11T20:41:11.785Z,41.06
2023-03-11T20:43:40.301Z,40.69
2023-03-11T20:46:08.791Z,40.58
2023-03-11T20:48:37.156Z,40.42
2023-03-11T20:51:09.204Z,40.72
2023-03-11T20:53:36.806Z,40.14
2023-03-11T20:56:12.640Z,40.68
2023-03-11T20:58:40.191Z,40.33
2023-03-11T21:01:15.040Z,40.47
2023-03-11T21:03:43.778Z,41.11
2023-03-11T21:06:23.159Z,40.83
2023-03-11T21:08:50.712Z,40.71
2023-03-11T21:11:18.516Z,40.96
2023-03-11T21:13:45.883Z,40.89
2023-03-11T21:16:13.528Z,40.54
2023-03-11T21:18:42.740Z,40.63
2023-03-11T21:21:12.087Z,40.97
2023-03-11T21:23:41.032Z,40.42
2023-03-11T21:26:08.631Z,40.69
2023-03-11T21:28:36.216Z,40.92
2023-03-11T21:31:15.120Z,41.13
2023-03-11T21:33:42.926Z,40.73
2023-03-11T21:36:12.892Z,40.50
2023-03-11T21:38:41.213Z,40.88
2023-03-11T21:41:14.792Z,41.04
2023-03-11T21:43:43.202Z,40.85
2023-03-11T21:46:13.608Z,40.56
2023-03-11T21:48:40.948Z,40.76
2023-03-11T21:51:08.206Z,40.96
2023-03-11T21:53:35.579Z,40.67
2023-03-11T21:56:06.256Z,40.37
2023-03-11T21:58:34.002Z,40.64
2023-03-11T22:01:01.853Z,40.81
2023-03-11T22:03:29.643Z,40.69
2023-03-11T22:06:01.020Z,40.34
2023-03-11T22:08:32.028Z,40.27
2023-03-11T22:10:59.229Z,40.68
2023-03-11T22:13:27.519Z,40.92
2023-03-11T22:15:54.858Z,40.46
2023-03-11T22:18:21.939Z,41.11
2023-03-11T22:20:48.874Z,40.55
2023-03-11T22:23:15.672Z,40.25
2023-03-11T22:25:42.663Z,40.61
2023-03-11T22:28:13.022Z,40.62
2023-03-11T22:30:40.033Z,40.73
2023-03-11T22:33:07.270Z,40.32
2023-03-11T22:35:34.548Z,40.43
2023-03-11T22:38:01.568Z,40.31
2023-03-11T22:40:28.682Z,40.56
2023-03-11T22:42:55.649Z,40.28
2023-03-11T22:45:23.109Z,40.79
2023-03-11T22:47:50.443Z,40.49
2023-03-11T22:50:18.067Z,40.40
2023-03-11T22:52:45.211Z,40.30
2023-03-11T22:55:12.147Z,40.42
2023-03-11T22:57:39.175Z,40.50
2023-03-11T23:00:17.212Z,40.81
2023-03-11T23:02:45.666Z,40.23
2023-03-11T23:05:14.153Z,40.34
2023-03-11T23:07:41.669Z,40.32
2023-03-11T23:10:10.743Z,40.11
2023-03-11T23:12:38.340Z,40.78
2023-03-11T23:15:09.251Z,40.24
2023-03-11T23:17:36.060Z,40.43
2023-03-11T23:20:05.540Z,40.06
2023-03-11T23:22:36.043Z,40.21
2023-03-11T23:25:05.106Z,40.70
2023-03-11T23:27:32.467Z,40.17
2023-03-11T23:29:59.303Z,40.20
2023-03-11T23:32:26.260Z,40.66
2023-03-11T23:34:53.167Z,39.97
2023-03-11T23:37:20.132Z,40.73
2023-03-11T23:39:46.806Z,40.20
2023-03-11T23:42:25.017Z,40.10
2023-03-11T23:44:52.797Z,40.27
2023-03-11T23:47:19.820Z,40.47
2023-03-11T23:49:46.719Z,40.27
2023-03-11T23:52:13.565Z,40.31
2023-03-11T23:54:40.558Z,40.58
2023-03-11T23:57:07.522Z,40.48
2023-03-11T23:59:34.519Z,40.40
